In Rescue
 
Open Full Screen Window  High Contrast Mode
Wind Gusting 00 knots
03
April 02, 2020 11:22 PM EDT
Weather Information
Wind Direction
  340 °
Wind Speed
  03 kt (3 mph)
Wind Gust
  00 kt (0 mph)
Altimeter
30.12 in
Visibility
10 SM
Temperature
00° C
32° F
Dewpoint
-02° C
28° F
Humidity
87%
1hr Rain Fall
00.00 in.
24hr Rain Fall
00.00 in.
Sky Condition
Clear
VFR

METAR KISQ 030322Z AUTO 34003KT 10SM CLR 00/M02 A3012 RMK AO2 T00041024

FAA Disclaimer: The data displayed is for advisory purposes only and is not to be used for flight planning or operations.